Time;durP1;ratioP1;P1;durP2;ratioP2;P2;SDS_P1;SDS_P2;PMS_P1;PMS_P2;Temp;Humidity;BMP_temperature;BMP_pressure;BME280_temperature;BME280_humidity;BME280_pressure;Samples;Min_cycle;Max_cycle;Signal;HPM_P1;HPM_P2
2022/05/19 00:01:25;;;;;;;2.33;1.30;;;;;;;13.97;56.62;102358.75;5077604;28;20434;-65
2022/05/19 00:03:52;;;;;;;2.95;1.60;;;;;;;13.92;56.35;102371.72;5052307;28;20500;-62
2022/05/19 00:06:19;;;;;;;1.52;1.40;;;;;;;13.91;56.59;102364.72;5048609;28;20414;-63
2022/05/19 00:08:47;;;;;;;2.28;1.60;;;;;;;13.91;56.26;102364.72;5059791;28;20421;-65
2022/05/19 00:11:17;;;;;;;4.28;1.60;;;;;;;13.86;56.45;102367.81;5048260;28;20496;-62
2022/05/19 00:13:46;;;;;;;1.88;1.55;;;;;;;13.86;56.58;102373.16;5066863;28;20430;-63
2022/05/19 00:16:13;;;;;;;2.50;1.60;;;;;;;13.80;56.70;102371.09;5070724;28;20415;-63
2022/05/19 00:18:40;;;;;;;3.17;1.65;;;;;;;13.87;56.65;102371.34;5064907;28;20424;-62
2022/05/19 00:21:07;;;;;;;2.95;1.35;;;;;;;13.81;56.82;102366.59;5079402;28;20420;-64
2022/05/19 00:23:34;;;;;;;5.25;1.55;;;;;;;13.75;56.93;102374.19;5071834;28;20418;-62
2022/05/19 00:26:03;;;;;;;3.37;1.40;;;;;;;13.71;57.00;102366.69;5076308;28;20522;-62
2022/05/19 00:28:30;;;;;;;3.45;1.50;;;;;;;13.72;56.53;102373.66;5059580;28;20424;-62
2022/05/19 00:30:57;;;;;;;2.75;1.83;;;;;;;13.68;56.91;102378.47;5079755;28;20478;-62
2022/05/19 00:34:53;;;;;;;3.60;1.53;;;;;;;13.64;57.34;102373.59;5085075;27;20402;-65
2022/05/19 00:37:20;;;;;;;2.75;1.50;;;;;;;13.63;57.14;102378.09;5079134;28;20426;-64
2022/05/19 00:39:47;;;;;;;3.10;1.50;;;;;;;13.63;56.77;102374.56;5073953;28;20954;-64
2022/05/19 00:45:00;;;;;;;2.17;1.50;;;;;;;13.68;57.28;102372.28;5082374;28;20475;-63
2022/05/19 00:47:34;;;;;;;2.45;1.60;;;;;;;13.66;56.92;102368.94;5082944;28;20426;-65
2022/05/19 00:50:04;;;;;;;2.30;1.58;;;;;;;13.65;56.44;102364.59;5073416;28;20880;-65
2022/05/19 00:52:38;;;;;;;1.80;1.30;;;;;;;13.46;56.97;102377.03;5079846;28;20410;-64
2022/05/19 00:55:09;;;;;;;1.70;1.27;;;;;;;13.51;56.75;102380.09;5080293;28;21004;-65
2022/05/19 00:57:41;;;;;;;1.67;1.50;;;;;;;13.51;56.75;102382.78;5072469;28;20509;-64
2022/05/19 01:00:11;;;;;;;2.30;1.35;;;;;;;13.48;56.72;102385.72;5082904;28;20501;-65
2022/05/19 01:02:41;;;;;;;3.40;1.75;;;;;;;13.50;56.70;102386.41;5067711;28;20498;-65
2022/05/19 01:05:14;;;;;;;2.47;1.45;;;;;;;13.42;56.34;102385.50;5078083;28;20530;-69
2022/05/19 01:07:48;;;;;;;2.15;1.60;;;;;;;13.35;56.46;102380.75;5072598;28;20497;-64
2022/05/19 01:10:15;;;;;;;2.05;1.50;;;;;;;13.35;56.69;102386.06;5070622;28;20507;-64
2022/05/19 01:12:47;;;;;;;2.45;1.35;;;;;;;13.34;56.62;102378.22;5079310;28;20473;-64
2022/05/19 01:15:14;;;;;;;2.20;1.23;;;;;;;13.30;56.83;102385.63;5078423;28;20847;-64
2022/05/19 01:17:42;;;;;;;2.65;1.52;;;;;;;13.34;56.71;102387.06;5072340;28;20994;-64
2022/05/19 01:20:15;;;;;;;2.60;1.70;;;;;;;13.33;56.88;102384.56;5071369;28;20416;-67
2022/05/19 01:22:52;;;;;;;2.13;1.90;;;;;;;13.34;57.04;102391.53;5079599;28;20418;-64
2022/05/19 01:25:28;;;;;;;3.45;2.15;;;;;;;13.33;56.78;102385.38;5054677;28;20806;-64
2022/05/19 01:27:58;;;;;;;5.28;2.40;;;;;;;13.30;56.95;102385.63;5082208;28;20453;-64
2022/05/19 01:30:25;;;;;;;4.35;2.50;;;;;;;13.29;57.04;102383.13;5069121;28;20502;-65
2022/05/19 01:32:54;;;;;;;6.10;2.95;;;;;;;13.26;56.57;102381.59;5083868;28;20529;-64
2022/05/19 01:35:21;;;;;;;6.13;2.85;;;;;;;13.21;56.75;102391.84;5074107;28;20416;-64
2022/05/19 01:37:49;;;;;;;6.35;3.00;;;;;;;13.24;56.85;102391.56;5094759;28;20422;-64
2022/05/19 01:40:28;;;;;;;4.72;2.50;;;;;;;13.24;56.62;102399.56;5096757;28;20503;-65
2022/05/19 01:43:10;;;;;;;4.30;2.60;;;;;;;13.23;56.88;102397.03;5099891;28;20417;-65
2022/05/19 01:46:07;;;;;;;5.78;2.65;;;;;;;13.23;57.00;102395.19;5081099;28;20445;-64
2022/05/19 01:48:42;;;;;;;4.95;2.38;;;;;;;13.19;56.87;102396.47;5074674;28;20887;-64
2022/05/19 01:51:17;;;;;;;3.47;2.10;;;;;;;13.15;56.94;102401.25;5086157;28;20502;-63
2022/05/19 01:53:51;;;;;;;2.70;1.80;;;;;;;13.15;56.43;102400.44;5078069;28;20993;-66
2022/05/19 01:56:23;;;;;;;2.35;1.90;;;;;;;13.11;56.75;102407.03;5072619;28;20497;-63
2022/05/19 01:59:02;;;;;;;2.05;1.60;;;;;;;13.01;56.63;102410.53;5086215;28;20425;-63
2022/05/19 02:01:30;;;;;;;2.15;1.70;;;;;;;13.06;56.70;102420.78;5075916;28;20850;-63
2022/05/19 02:04:08;;;;;;;3.17;1.65;;;;;;;13.03;56.53;102417.56;5080271;28;20438;-63
2022/05/19 02:06:41;;;;;;;3.33;1.97;;;;;;;12.98;56.51;102421.50;5084589;28;20496;-63
2022/05/19 02:09:15;;;;;;;2.72;2.20;;;;;;;12.88;56.88;102415.34;5071039;28;20516;-65
2022/05/19 02:11:46;;;;;;;3.50;2.42;;;;;;;12.95;56.80;102416.44;5081135;28;20441;-62
2022/05/19 02:14:18;;;;;;;3.20;2.53;;;;;;;12.95;56.80;102418.28;5070576;28;20430;-62
2022/05/19 02:16:46;;;;;;;3.72;2.67;;;;;;;12.92;56.59;102414.06;5085846;28;20409;-63
2022/05/19 02:19:18;;;;;;;3.10;2.80;;;;;;;12.89;56.97;102425.03;5085784;28;20505;-64
2022/05/19 02:21:45;;;;;;;3.03;2.78;;;;;;;12.86;57.04;102425.31;5083265;28;20509;-63
2022/05/19 02:24:16;;;;;;;3.25;2.95;;;;;;;12.84;57.02;102423.75;5088224;28;20415;-62
2022/05/19 02:26:42;;;;;;;5.03;3.17;;;;;;;12.81;57.15;102427.53;5087993;28;20839;-62
2022/05/19 02:29:17;;;;;;;3.50;3.20;;;;;;;12.83;57.19;102430.91;5084222;28;20492;-62
2022/05/19 02:32:39;;;;;;;3.80;3.10;;;;;;;12.80;57.26;102432.03;5103897;27;20396;-62
2022/05/19 02:35:07;;;;;;;5.38;3.90;;;;;;;12.80;57.66;102429.38;5087497;28;20414;-67
2022/05/19 02:37:35;;;;;;;5.50;3.47;;;;;;;12.46;58.98;102426.31;5103526;28;20922;-63
2022/05/19 02:40:03;;;;;;;5.38;4.10;;;;;;;12.62;58.86;102431.91;5104026;28;20495;-63
2022/05/19 02:42:30;;;;;;;5.05;4.00;;;;;;;12.71;59.12;102437.34;5090662;28;20424;-64
2022/05/19 02:44:57;;;;;;;5.38;4.22;;;;;;;12.76;59.09;102435.94;5086312;28;20414;-63
2022/05/19 02:47:24;;;;;;;5.15;4.25;;;;;;;12.75;59.60;102436.94;5100414;28;20422;-66
2022/05/19 02:49:53;;;;;;;5.18;4.30;;;;;;;12.84;59.20;102451.22;5093266;28;20550;-63
2022/05/19 02:52:20;;;;;;;6.68;4.43;;;;;;;12.73;59.51;102451.34;5092449;28;20426;-63
2022/05/19 02:54:46;;;;;;;9.25;4.78;;;;;;;12.81;59.53;102451.50;5099739;28;20413;-64
2022/05/19 02:57:13;;;;;;;5.70;4.43;;;;;;;12.93;59.45;102444.22;5087571;28;20515;-63
2022/05/19 02:59:40;;;;;;;7.47;4.50;;;;;;;12.91;59.42;102449.66;5100505;28;20909;-63
2022/05/19 03:02:07;;;;;;;6.05;4.60;;;;;;;12.90;59.46;102455.97;5093715;28;20418;-67
2022/05/19 03:04:34;;;;;;;6.40;5.07;;;;;;;12.91;59.43;102449.66;5099113;28;20405;-64
2022/05/19 03:07:03;;;;;;;7.15;4.75;;;;;;;12.92;59.50;102451.34;5101854;28;20492;-63
2022/05/19 03:09:30;;;;;;;6.30;5.00;;;;;;;12.91;59.63;102448.81;5080327;28;20963;-62
2022/05/19 03:11:57;;;;;;;6.47;4.30;;;;;;;12.95;59.40;102456.38;5095387;28;20800;-62
2022/05/19 03:14:24;;;;;;;6.15;4.63;;;;;;;12.96;59.86;102450.09;5085160;28;20505;-63
2022/05/19 03:16:51;;;;;;;5.32;4.80;;;;;;;12.98;59.53;102463.22;5100642;28;20496;-63
2022/05/19 03:19:18;;;;;;;7.75;5.13;;;;;;;12.95;59.73;102459.03;5102487;28;20507;-62
2022/05/19 03:21:45;;;;;;;10.02;4.95;;;;;;;12.94;59.56;102465.34;5092431;28;20427;-64
2022/05/19 03:24:13;;;;;;;7.13;5.03;;;;;;;12.95;60.05;102463.53;5093043;28;20506;-63
2022/05/19 03:26:40;;;;;;;11.73;6.53;;;;;;;12.98;59.87;102463.22;5095703;28;20455;-63
2022/05/19 03:29:07;;;;;;;7.85;5.68;;;;;;;12.97;60.21;102469.56;5083254;28;20428;-64
2022/05/19 03:31:35;;;;;;;8.88;6.13;;;;;;;13.01;60.17;102471.78;5072481;28;20467;-63
2022/05/19 03:34:02;;;;;;;8.30;5.72;;;;;;;13.08;60.33;102468.56;5070123;28;20439;-63
2022/05/19 03:36:29;;;;;;;6.65;5.20;;;;;;;13.07;60.06;102472.19;5066489;28;20827;-63
2022/05/19 03:38:56;;;;;;;7.68;4.72;;;;;;;13.13;59.99;102471.63;5082387;28;20414;-62
2022/05/19 03:41:25;;;;;;;5.55;4.43;;;;;;;13.19;59.90;102466.53;5076965;28;20414;-62
2022/05/19 03:43:52;;;;;;;10.07;4.67;;;;;;;13.26;60.32;102468.66;5070687;28;20507;-63
2022/05/19 03:46:19;;;;;;;7.10;4.85;;;;;;;13.31;59.56;102475.25;5069994;28;21498;-63
2022/05/19 03:48:47;;;;;;;5.55;4.10;;;;;;;13.33;59.76;102473.28;5070125;28;20414;-66
2022/05/19 03:51:26;;;;;;;6.03;4.20;;;;;;;13.41;59.48;102474.38;5070324;28;20427;-62
2022/05/19 03:53:54;;;;;;;7.10;4.18;;;;;;;13.45;59.19;102479.28;5069452;28;20417;-62
2022/05/19 03:56:23;;;;;;;5.15;3.75;;;;;;;13.49;59.07;102479.84;5070415;28;20411;-63
2022/05/19 03:58:51;;;;;;;4.60;3.70;;;;;;;13.58;58.74;102474.44;5069872;28;20789;-62
2022/05/19 04:01:19;;;;;;;5.03;3.40;;;;;;;13.61;59.07;102470.63;5069436;28;20421;-64
2022/05/19 04:03:47;;;;;;;4.32;3.50;;;;;;;13.69;58.75;102483.25;5069799;28;20924;-65
2022/05/19 04:06:14;;;;;;;4.57;2.80;;;;;;;13.67;58.29;102482.56;5070279;28;20499;-63
2022/05/19 04:08:41;;;;;;;6.57;3.20;;;;;;;13.72;58.53;102475.81;5070289;28;20494;-62
2022/05/19 04:11:08;;;;;;;4.65;3.22;;;;;;;13.76;58.05;102484.34;5069627;28;20736;-63
2022/05/19 04:13:35;;;;;;;7.68;3.17;;;;;;;13.83;58.15;102480.09;5070215;28;20509;-62
2022/05/19 04:16:04;;;;;;;8.32;3.20;;;;;;;13.86;58.29;102482.44;5069554;28;20494;-62
2022/05/19 04:18:31;;;;;;;5.72;3.30;;;;;;;13.98;58.17;102490.28;5069326;28;20468;-63
2022/05/19 04:20:58;;;;;;;7.07;3.77;;;;;;;13.95;58.31;102478.91;5069561;28;20862;-62
2022/05/19 04:23:25;;;;;;;6.60;3.87;;;;;;;14.07;58.58;102484.03;5069331;28;20421;-63
2022/05/19 04:25:52;;;;;;;8.05;4.28;;;;;;;14.13;58.90;102481.63;5069447;28;20460;-62
2022/05/19 04:28:19;;;;;;;11.63;4.50;;;;;;;14.15;58.61;102481.44;5069838;28;20417;-62
2022/05/19 04:30:46;;;;;;;10.30;4.32;;;;;;;14.14;58.86;102495.78;5069212;28;20451;-63
2022/05/19 04:33:14;;;;;;;8.40;4.80;;;;;;;14.19;59.17;102484.66;5069246;28;21000;-62
2022/05/19 04:35:42;;;;;;;10.87;5.17;;;;;;;14.26;59.42;102488.38;5069937;28;20550;-65
2022/05/19 04:38:11;;;;;;;12.60;5.45;;;;;;;14.30;59.44;102479.13;5070582;28;20445;-60
2022/05/19 04:40:39;;;;;;;12.43;5.60;;;;;;;14.38;59.13;102481.84;5070490;28;20485;-61
2022/05/19 04:43:06;;;;;;;10.93;5.47;;;;;;;14.32;59.74;102495.81;5070170;28;21492;-61
2022/05/19 04:45:34;;;;;;;12.85;5.60;;;;;;;14.36;59.49;102485.69;5070535;28;20417;-62
2022/05/19 04:48:01;;;;;;;10.73;5.60;;;;;;;14.36;59.42;102491.00;5068104;28;20411;-60
2022/05/19 04:50:30;;;;;;;11.55;5.63;;;;;;;14.36;59.79;102486.50;5070472;28;20411;-60
2022/05/19 04:52:58;;;;;;;12.27;5.55;;;;;;;14.41;59.73;102486.91;5069918;28;20499;-60
2022/05/19 04:55:25;;;;;;;10.05;5.88;;;;;;;14.44;59.57;102496.41;5068916;28;20438;-60
2022/05/19 04:57:52;;;;;;;12.50;6.25;;;;;;;14.40;60.26;102495.88;5068733;28;20510;-59
2022/05/19 05:00:20;;;;;;;10.25;6.43;;;;;;;14.43;60.03;102500.09;5070063;28;20419;-61
2022/05/19 05:02:47;;;;;;;11.45;6.45;;;;;;;14.46;60.00;102499.78;5069868;28;20411;-59
2022/05/19 05:05:14;;;;;;;10.68;6.20;;;;;;;14.51;60.13;102505.50;5070532;28;20501;-60
2022/05/19 05:07:42;;;;;;;13.15;7.13;;;;;;;14.58;60.07;102509.25;5070477;28;20965;-60
2022/05/19 05:10:10;;;;;;;14.32;7.10;;;;;;;14.71;60.07;102512.41;5069308;28;20493;-60
2022/05/19 05:12:37;;;;;;;15.33;7.70;;;;;;;14.69;59.79;102511.72;5069482;28;20599;-60
2022/05/19 05:15:05;;;;;;;14.75;7.78;;;;;;;14.82;59.74;102507.78;5069737;28;20429;-62
2022/05/19 05:17:32;;;;;;;16.60;7.60;;;;;;;14.92;59.76;102516.56;5069966;28;20494;-61
2022/05/19 05:19:59;;;;;;;16.35;7.97;;;;;;;14.96;59.52;102515.25;5070183;28;20407;-61
2022/05/19 05:22:26;;;;;;;10.35;7.25;;;;;;;14.93;59.94;102518.25;5069865;28;20767;-60
2022/05/19 05:24:54;;;;;;;9.10;6.50;;;;;;;14.84;59.81;102517.34;5070549;28;20490;-61
2022/05/19 05:27:21;;;;;;;11.57;7.30;;;;;;;14.81;60.24;102520.31;5070384;28;20498;-60
2022/05/19 05:29:48;;;;;;;10.80;7.85;;;;;;;14.92;59.84;102521.91;5069390;28;20904;-61
2022/05/19 05:32:15;;;;;;;11.45;7.38;;;;;;;15.01;60.52;102529.00;5070247;28;20438;-60
2022/05/19 05:34:42;;;;;;;10.18;7.60;;;;;;;15.12;60.05;102521.72;5070273;28;20825;-60
2022/05/19 05:37:09;;;;;;;11.23;7.43;;;;;;;15.16;59.67;102521.28;5069992;28;20501;-61
2022/05/19 05:39:35;;;;;;;13.32;8.05;;;;;;;15.23;60.03;102516.13;5070329;28;20509;-61
2022/05/19 05:42:05;;;;;;;11.77;7.43;;;;;;;15.37;59.54;102522.75;5069856;28;20942;-60
2022/05/19 05:44:32;;;;;;;10.27;6.95;;;;;;;15.58;59.26;102525.88;5069756;28;20897;-60
2022/05/19 05:46:59;;;;;;;10.70;7.00;;;;;;;15.77;58.52;102529.34;5069690;28;20505;-60
2022/05/19 05:49:26;;;;;;;10.93;7.35;;;;;;;15.80;58.27;102534.38;5070163;28;20421;-60
2022/05/19 05:51:53;;;;;;;9.50;6.60;;;;;;;16.37;57.21;102528.41;5070015;28;20831;-60
2022/05/19 05:54:19;;;;;;;10.85;6.82;;;;;;;16.70;56.63;102531.13;5069747;28;20434;-59
2022/05/19 05:56:46;;;;;;;17.38;7.00;;;;;;;17.12;55.32;102533.66;5069717;28;20417;-61
2022/05/19 05:59:15;;;;;;;13.93;6.25;;;;;;;17.94;53.37;102530.78;5069686;28;20446;-61
2022/05/19 06:01:42;;;;;;;6.87;4.87;;;;;;;18.75;51.02;102525.09;5069627;28;20411;-61
2022/05/19 06:04:09;;;;;;;7.25;4.60;;;;;;;19.40;49.69;102526.38;5069542;28;20501;-61
2022/05/19 06:06:35;;;;;;;7.38;4.32;;;;;;;20.05;48.05;102523.97;5069885;28;20489;-61
2022/05/19 06:09:03;;;;;;;7.15;4.07;;;;;;;20.65;46.50;102527.31;5069490;28;20506;-61
2022/05/19 06:11:30;;;;;;;9.05;3.92;;;;;;;20.99;44.81;102518.53;5069444;28;20510;-62
2022/05/19 06:13:57;;;;;;;7.10;4.03;;;;;;;21.15;44.50;102522.75;5069460;28;20419;-62
2022/05/19 06:16:26;;;;;;;7.15;4.30;;;;;;;21.44;44.01;102522.75;5069377;28;20502;-61
2022/05/19 06:18:53;;;;;;;6.95;4.18;;;;;;;21.58;43.67;102522.66;5069690;28;20490;-62
2022/05/19 06:21:20;;;;;;;5.28;3.55;;;;;;;21.59;43.28;102528.91;5069345;28;20976;-62
2022/05/19 06:23:47;;;;;;;6.88;4.32;;;;;;;21.65;43.63;102528.09;5069329;28;20485;-61
2022/05/19 06:26:14;;;;;;;5.38;3.40;;;;;;;21.67;43.73;102530.59;5069384;28;20411;-61
2022/05/19 06:28:41;;;;;;;6.30;3.70;;;;;;;21.64;43.52;102525.59;5069389;28;20504;-61
2022/05/19 06:31:08;;;;;;;4.63;3.50;;;;;;;21.91;43.05;102527.41;5069812;28;20489;-61
2022/05/19 06:33:36;;;;;;;5.05;3.60;;;;;;;21.75;43.35;102530.41;5069230;28;20873;-61
2022/05/19 06:36:04;;;;;;;5.28;3.63;;;;;;;21.45;43.88;102533.38;5069396;28;20985;-61
2022/05/19 06:38:32;;;;;;;6.63;4.18;;;;;;;21.48;44.03;102530.28;5069605;28;20441;-61
2022/05/19 06:43:40;;;;;;;7.20;3.80;;;;;;;21.43;44.30;102537.25;5069249;28;20411;-60
2022/05/19 06:46:07;;;;;;;5.63;3.78;;;;;;;21.47;43.79;102525.09;5069670;28;20506;-60
2022/05/19 06:48:34;;;;;;;5.40;3.63;;;;;;;21.46;44.30;102526.09;5069305;28;20505;-62
2022/05/19 06:51:02;;;;;;;5.90;3.40;;;;;;;21.79;43.45;102529.00;5069010;28;20421;-61
2022/05/19 06:53:29;;;;;;;4.80;3.47;;;;;;;21.37;44.39;102518.16;5068812;28;21018;-61
2022/05/19 06:55:56;;;;;;;3.75;3.28;;;;;;;21.43;44.80;102521.94;5069393;28;20433;-61
2022/05/19 06:58:23;;;;;;;4.10;3.10;;;;;;;21.75;43.58;102533.97;5068932;28;20872;-61
2022/05/19 07:00:50;;;;;;;5.95;3.38;;;;;;;21.90;43.65;102522.19;5069264;28;20472;-62
2022/05/19 07:03:17;;;;;;;4.15;3.00;;;;;;;22.05;43.49;102522.84;5068866;28;20501;-61
2022/05/19 07:05:44;;;;;;;3.83;3.20;;;;;;;21.90;43.58;102522.19;5068549;28;20493;-61
2022/05/19 07:08:13;;;;;;;7.32;3.30;;;;;;;21.96;44.06;102522.19;5068579;28;20418;-62
2022/05/19 07:10:39;;;;;;;6.57;3.22;;;;;;;21.90;43.87;102524.91;5068410;28;20449;-62
2022/05/19 07:13:07;;;;;;;4.25;3.20;;;;;;;21.95;43.83;102509.75;5068890;28;20511;-62
2022/05/19 07:15:35;;;;;;;4.82;2.80;;;;;;;21.31;44.99;102520.81;5068822;28;20414;-61
2022/05/19 07:18:02;;;;;;;5.50;3.28;;;;;;;20.98;45.31;102519.53;5070185;28;20936;-62
2022/05/19 07:20:48;;;;;;;3.90;2.85;;;;;;;20.76;46.49;102507.97;5072576;28;20514;-62
2022/05/19 07:23:19;;;;;;;5.88;4.68;;;;;;;21.56;45.55;102508.53;5072948;28;20411;-63
2022/05/19 07:25:47;;;;;;;5.40;3.10;;;;;;;21.56;44.92;102505.00;5072745;28;20411;-61
2022/05/19 07:28:17;;;;;;;5.07;2.70;;;;;;;22.03;43.88;102506.03;5072376;28;20407;-61
2022/05/19 07:30:46;;;;;;;6.88;2.78;;;;;;;22.16;43.19;102513.34;5072606;28;20476;-61
2022/05/19 07:33:14;;;;;;;6.45;2.80;;;;;;;21.66;44.44;102504.63;5072115;28;20843;-62
2022/05/19 07:35:44;;;;;;;5.33;2.80;;;;;;;22.18;43.39;102507.72;5072568;28;20502;-63
2022/05/19 07:38:11;;;;;;;5.43;2.60;;;;;;;21.93;43.33;102498.31;5072201;28;20403;-62
2022/05/19 07:40:40;;;;;;;7.55;2.97;;;;;;;22.15;43.58;102485.50;5072585;28;20415;-62
2022/05/19 07:46:07;;;;;;;4.00;2.30;;;;;;;22.47;42.89;102488.50;5029468;28;20493;-62
2022/05/19 07:48:35;;;;;;;3.95;2.80;;;;;;;22.79;42.00;102486.00;5030011;28;20410;-61
2022/05/19 07:51:03;;;;;;;5.25;2.65;;;;;;;22.85;41.50;102487.03;5049079;28;20418;-63
2022/05/19 07:53:30;;;;;;;3.78;3.28;;;;;;;21.97;44.09;102482.56;5072012;28;20525;-61
2022/05/19 07:55:58;;;;;;;5.70;3.80;;;;;;;21.02;46.98;102489.50;5072313;28;20494;-62
2022/05/19 07:58:25;;;;;;;4.70;3.30;;;;;;;20.91;47.11;102488.16;5072659;28;20478;-62
2022/05/19 08:00:53;;;;;;;5.35;3.35;;;;;;;21.23;46.46;102485.88;5072142;28;20861;-62
2022/05/19 08:03:23;;;;;;;5.68;3.10;;;;;;;20.88;46.56;102489.38;5071852;28;20421;-62
2022/05/19 08:05:52;;;;;;;5.38;3.10;;;;;;;19.98;49.05;102494.25;5071498;28;20499;-63
2022/05/19 08:08:20;;;;;;;6.15;3.15;;;;;;;19.29;50.25;102490.03;5071792;28;20415;-62
2022/05/19 08:10:47;;;;;;;6.07;3.47;;;;;;;19.68;50.18;102488.91;5071347;28;20418;-62
2022/05/19 08:16:00;;;;;;;5.00;3.00;;;;;;;19.91;49.10;102485.28;5071708;28;20414;-62
2022/05/19 08:18:28;;;;;;;4.30;3.00;;;;;;;20.25;49.28;102479.22;5071530;28;20436;-61
2022/05/19 08:20:57;;;;;;;3.72;2.80;;;;;;;20.30;49.34;102481.38;5071534;28;20999;-61
2022/05/19 08:23:27;;;;;;;5.68;2.85;;;;;;;20.17;49.37;102474.00;5071838;28;20414;-61
2022/05/19 08:25:55;;;;;;;3.75;3.00;;;;;;;20.00;49.67;102464.47;5071496;28;20417;-62
2022/05/19 08:28:29;;;;;;;4.37;2.93;;;;;;;20.18;48.81;102469.44;5071341;28;20418;-61
2022/05/19 08:30:58;;;;;;;3.10;2.80;;;;;;;20.33;48.02;102475.59;5071544;28;20930;-62
2022/05/19 08:33:25;;;;;;;5.83;2.93;;;;;;;20.60;47.21;102460.53;5071046;28;20947;-62
2022/05/19 08:35:52;;;;;;;3.20;2.70;;;;;;;20.12;47.70;102473.72;5071264;28;20494;-62
2022/05/19 08:38:19;;;;;;;3.67;2.47;;;;;;;20.66;46.64;102458.13;5071211;28;20498;-62
2022/05/19 08:40:50;;;;;;;4.20;2.58;;;;;;;21.02;45.47;102455.28;5071443;28;20462;-62
2022/05/19 08:43:20;;;;;;;5.25;2.70;;;;;;;20.71;46.88;102459.19;5071422;28;20422;-63
2022/05/19 08:45:51;;;;;;;5.38;2.75;;;;;;;21.31;45.28;102447.97;5071061;28;20502;-62
2022/05/19 08:48:20;;;;;;;4.93;2.75;;;;;;;20.77;45.91;102452.19;5070977;28;20498;-62
2022/05/19 08:50:52;;;;;;;6.90;2.90;;;;;;;20.91;45.71;102447.72;5071240;28;20809;-64
2022/05/19 08:53:25;;;;;;;3.28;2.50;;;;;;;20.24;46.55;102445.28;5070558;28;20442;-63
2022/05/19 08:55:57;;;;;;;2.80;2.38;;;;;;;20.28;46.60;102445.72;5070649;28;20407;-62
2022/05/19 08:58:47;;;;;;;5.97;2.30;;;;;;;20.44;45.71;102436.56;5070669;28;20411;-62
2022/05/19 09:01:20;;;;;;;3.65;2.60;;;;;;;20.93;45.32;102434.88;5071004;28;20573;-62
2022/05/19 09:04:01;;;;;;;4.13;2.30;;;;;;;21.09;45.30;102433.75;5070713;28;20928;-63
2022/05/19 09:06:39;;;;;;;4.60;1.92;;;;;;;21.45;44.10;102430.00;5070601;28;20498;-63
2022/05/19 09:09:25;;;;;;;2.47;1.98;;;;;;;20.83;43.26;102431.69;5070899;28;20473;-63
2022/05/19 09:11:57;;;;;;;3.67;1.80;;;;;;;20.93;43.08;102429.50;5070673;28;20418;-63
2022/05/19 09:14:28;;;;;;;3.85;1.80;;;;;;;20.49;44.46;102434.09;5070454;28;20966;-62
2022/05/19 09:16:58;;;;;;;2.92;1.70;;;;;;;20.75;43.96;102421.91;5070209;28;21057;-63
2022/05/19 09:19:32;;;;;;;3.25;1.80;;;;;;;21.17;43.59;102420.09;5070876;28;20482;-62
2022/05/19 09:22:04;;;;;;;2.57;1.50;;;;;;;20.96;42.61;102423.72;5070063;28;20506;-63
2022/05/19 09:24:31;;;;;;;3.40;1.75;;;;;;;20.93;42.08;102416.00;5070197;28;21002;-63
2022/05/19 09:27:01;;;;;;;4.82;1.38;;;;;;;21.14;40.08;102418.63;5070174;28;20498;-62
2022/05/19 09:29:33;;;;;;;2.22;1.33;;;;;;;21.44;39.85;102407.56;5069934;28;20434;-65
2022/05/19 09:32:08;;;;;;;6.07;2.50;;;;;;;21.55;39.57;102409.75;5068945;28;20427;-63
2022/05/19 09:34:36;;;;;;;1.73;1.35;;;;;;;21.65;38.26;102412.03;5070022;28;20427;-63
2022/05/19 09:37:09;;;;;;;3.60;1.25;;;;;;;22.17;38.46;102409.66;5069227;28;20915;-63
2022/05/19 09:39:49;;;;;;;2.03;1.20;;;;;;;22.45;37.91;102395.97;5070006;28;20407;-63
2022/05/19 09:42:21;;;;;;;2.42;1.10;;;;;;;22.44;34.54;102394.34;5069722;28;20482;-63
2022/05/19 09:44:54;;;;;;;2.50;0.90;;;;;;;22.31;29.84;102384.38;5069912;28;20995;-63
2022/05/19 09:47:30;;;;;;;2.95;0.88;;;;;;;22.86;29.95;102378.69;5069946;28;20494;-62
2022/05/19 09:50:05;;;;;;;5.60;1.20;;;;;;;23.18;29.30;102380.72;5069891;28;20460;-63
2022/05/19 09:52:33;;;;;;;2.67;0.77;;;;;;;23.38;27.79;102381.44;5069732;28;20439;-62
2022/05/19 09:55:05;;;;;;;1.33;0.88;;;;;;;23.46;28.00;102372.25;5070024;28;20449;-62
2022/05/19 09:57:43;;;;;;;1.63;0.70;;;;;;;23.67;27.13;102374.63;5069678;28;20415;-62
2022/05/19 10:00:19;;;;;;;2.35;0.90;;;;;;;23.95;26.69;102370.75;5069941;28;20419;-61
2022/05/19 10:02:52;;;;;;;2.72;1.02;;;;;;;24.27;25.91;102364.44;5069534;28;20422;-64
2022/05/19 10:05:26;;;;;;;3.60;0.70;;;;;;;24.31;24.55;102371.94;5069866;28;20403;-63
2022/05/19 10:08:04;;;;;;;0.95;0.57;;;;;;;24.36;24.19;102363.97;5070001;28;20428;-63
2022/05/19 10:10:33;;;;;;;2.67;0.65;;;;;;;24.39;24.05;102346.41;5069573;28;20415;-63
2022/05/19 10:13:04;;;;;;;1.70;0.70;;;;;;;24.49;23.96;102354.03;5069480;28;20431;-63
2022/05/19 10:15:44;;;;;;;1.70;0.77;;;;;;;24.58;22.94;102353.56;5069506;28;20415;-64
2022/05/19 10:18:23;;;;;;;2.58;0.80;;;;;;;24.55;22.66;102343.16;5069801;28;20407;-63
2022/05/19 10:20:59;;;;;;;2.95;0.68;;;;;;;24.46;22.49;102343.66;5069766;28;20417;-64
2022/05/19 10:23:42;;;;;;;1.45;0.70;;;;;;;24.73;22.87;102338.81;5069454;28;20414;-63
2022/05/19 10:26:35;;;;;;;2.05;0.70;;;;;;;24.59;23.65;102328.09;5069501;28;20419;-64
2022/05/19 10:32:25;;;;;;;1.90;0.70;;;;;;;24.75;22.75;102329.38;5069776;28;20414;-63
2022/05/19 10:35:03;;;;;;;5.93;1.30;;;;;;;24.77;22.62;102327.28;5069012;28;20438;-63
2022/05/19 10:37:46;;;;;;;3.42;1.10;;;;;;;24.84;23.24;102320.97;5069600;28;20403;-63
2022/05/19 10:40:29;;;;;;;1.40;0.85;;;;;;;24.97;22.86;102316.22;5068892;28;20970;-63
2022/05/19 10:43:13;;;;;;;1.73;0.90;;;;;;;25.11;22.46;102314.16;5069426;28;20472;-63
2022/05/19 10:45:47;;;;;;;4.25;1.50;;;;;;;25.14;22.28;102310.97;5069119;28;20425;-63
2022/05/19 10:48:48;;;;;;;6.23;3.07;;;;;;;25.14;22.64;102310.97;5069020;28;20451;-62
2022/05/19 10:51:19;;;;;;;2.70;0.90;;;;;;;25.15;22.97;102309.91;5069177;28;20411;-62
2022/05/19 10:54:10;;;;;;;2.05;0.80;;;;;;;25.07;22.70;102314.84;5071698;28;20518;-64
2022/05/19 10:57:14;;;;;;;2.63;0.80;;;;;;;25.15;22.68;102303.66;5073129;28;20904;-63
2022/05/19 10:59:57;;;;;;;2.03;0.80;;;;;;;25.12;23.07;102299.53;4991598;28;20417;-63
2022/05/19 11:02:47;;;;;;;1.45;0.80;;;;;;;25.40;24.91;102281.84;5061782;28;20421;-65
2022/05/19 11:05:30;;;;;;;2.22;0.90;;;;;;;25.36;23.63;102284.19;5073279;28;20456;-64
2022/05/19 11:08:08;;;;;;;1.27;0.80;;;;;;;25.40;23.75;102289.16;5073205;28;20434;-64
2022/05/19 11:10:43;;;;;;;1.00;0.60;;;;;;;25.33;22.58;102281.09;5072377;28;20411;-65
2022/05/19 11:13:35;;;;;;;1.75;0.80;;;;;;;25.26;23.10;102277.66;5072946;28;20430;-65
2022/05/19 11:16:13;;;;;;;2.33;0.70;;;;;;;25.23;22.49;102268.06;5073151;28;20415;-64
2022/05/19 11:18:47;;;;;;;1.45;0.77;;;;;;;25.29;23.23;102269.88;5073009;28;20499;-65
2022/05/19 11:21:19;;;;;;;2.20;0.93;;;;;;;25.33;23.58;102265.63;5072727;28;20413;-64
2022/05/19 11:23:52;;;;;;;3.00;0.70;;;;;;;25.30;22.58;102263.41;5072612;28;20770;-64
2022/05/19 11:26:23;;;;;;;1.63;0.80;;;;;;;25.30;23.04;102268.84;5072373;28;20403;-65
2022/05/19 11:28:56;;;;;;;1.67;1.10;;;;;;;25.37;22.34;102252.44;5072875;28;20844;-65
2022/05/19 11:31:30;;;;;;;1.98;1.00;;;;;;;25.47;22.05;102255.41;5072302;28;20497;-64
2022/05/19 11:34:01;;;;;;;1.98;0.90;;;;;;;25.51;23.21;102250.34;5072621;28;20533;-64
2022/05/19 11:36:42;;;;;;;1.75;0.80;;;;;;;25.50;21.57;102248.72;5072288;28;20414;-65
2022/05/19 11:39:18;;;;;;;3.00;0.90;;;;;;;25.35;22.42;102243.69;5072658;28;20472;-65
2022/05/19 11:41:48;;;;;;;1.35;1.00;;;;;;;25.42;23.04;102247.13;5072129;28;20796;-64
2022/05/19 11:44:22;;;;;;;2.58;0.95;;;;;;;25.29;23.58;102239.22;5072588;28;20417;-65
2022/05/19 11:46:59;;;;;;;1.83;0.90;;;;;;;25.48;22.67;102234.50;5072263;28;20422;-64
2022/05/19 11:55:19;;;;;;;2.88;0.82;;;;;;;25.50;23.41;102211.53;5072034;28;20430;-65
2022/05/19 11:58:01;;;;;;;1.77;0.82;;;;;;;25.40;22.62;102210.44;5072603;28;20411;-65
2022/05/19 12:00:32;;;;;;;2.30;1.20;;;;;;;25.23;22.96;102213.78;5071958;28;20766;-65
2022/05/19 12:03:05;;;;;;;1.80;1.00;;;;;;;25.34;23.10;102218.44;5071927;28;20501;-65